sensor_id;sensor_type;location;lat;lon;timestamp;pressure;altitude;pressure_sealevel;temperature;humidity
76994;BME280;66749;47.406;18.822;2023-06-24T00:00:09;100530.16;;;18.99;85.21
76994;BME280;66749;47.406;18.822;2023-06-24T00:00:43;100523.91;;;19.00;84.83
76994;BME280;66749;47.406;18.822;2023-06-24T00:01:15;100527.09;;;18.94;84.54
76994;BME280;66749;47.406;18.822;2023-06-24T00:01:47;100527.78;;;18.96;84.94
76994;BME280;66749;47.406;18.822;2023-06-24T00:02:19;100534.19;;;18.93;85.31
76994;BME280;66749;47.406;18.822;2023-06-24T00:02:55;100529.47;;;18.97;84.49
76994;BME280;66749;47.406;18.822;2023-06-24T00:03:28;100525.97;;;18.87;84.94
76994;BME280;66749;47.406;18.822;2023-06-24T00:04:00;100530.13;;;18.89;84.71
76994;BME280;66749;47.406;18.822;2023-06-24T00:04:32;100537.94;;;18.91;85.00
76994;BME280;66749;47.406;18.822;2023-06-24T00:05:04;100531.25;;;18.87;84.78
76994;BME280;66749;47.406;18.822;2023-06-24T00:05:38;100527.22;;;18.82;85.29
76994;BME280;66749;47.406;18.822;2023-06-24T00:06:15;100537.38;;;18.87;85.11
76994;BME280;66749;47.406;18.822;2023-06-24T00:06:50;100535.41;;;18.89;84.73
76994;BME280;66749;47.406;18.822;2023-06-24T00:07:24;100533.75;;;18.88;85.27
76994;BME280;66749;47.406;18.822;2023-06-24T00:07:58;100537.38;;;18.87;84.46
76994;BME280;66749;47.406;18.822;2023-06-24T00:08:34;100533.75;;;18.88;84.99
76994;BME280;66749;47.406;18.822;2023-06-24T00:09:06;100535.69;;;18.86;84.48
76994;BME280;66749;47.406;18.822;2023-06-24T00:09:39;100532.38;;;18.84;84.92
76994;BME280;66749;47.406;18.822;2023-06-24T00:10:13;100536.81;;;18.83;84.92
76994;BME280;66749;47.406;18.822;2023-06-24T00:10:47;100522.03;;;18.81;84.54
76994;BME280;66749;47.406;18.822;2023-06-24T00:11:19;100533.44;;;18.81;84.50
76994;BME280;66749;47.406;18.822;2023-06-24T00:11:51;100530.69;;;18.83;84.86
76994;BME280;66749;47.406;18.822;2023-06-24T00:12:23;100532.22;;;18.85;84.48
76994;BME280;66749;47.406;18.822;2023-06-24T00:12:55;100532.22;;;18.85;84.85
76994;BME280;66749;47.406;18.822;2023-06-24T00:13:27;100528.31;;;18.80;84.79
76994;BME280;66749;47.406;18.822;2023-06-24T00:14:00;100527.47;;;18.79;85.06
76994;BME280;66749;47.406;18.822;2023-06-24T00:14:32;100525.81;;;18.78;84.86
76994;BME280;66749;47.406;18.822;2023-06-24T00:15:05;100522.59;;;18.75;84.86
76994;BME280;66749;47.406;18.822;2023-06-24T00:15:37;100526.50;;;18.80;84.92
76994;BME280;66749;47.406;18.822;2023-06-24T00:16:14;100522.19;;;18.79;85.04
76994;BME280;66749;47.406;18.822;2023-06-24T00:16:46;100519.53;;;18.79;85.55
76994;BME280;66749;47.406;18.822;2023-06-24T00:17:20;100516.19;;;18.77;85.37
76994;BME280;66749;47.406;18.822;2023-06-24T00:17:52;100506.59;;;18.76;85.67
76994;BME280;66749;47.406;18.822;2023-06-24T00:18:24;100512.59;;;18.78;85.02
76994;BME280;66749;47.406;18.822;2023-06-24T00:18:56;100501.56;;;18.73;85.14
76994;BME280;66749;47.406;18.822;2023-06-24T00:19:32;100508.66;;;18.73;84.79
76994;BME280;66749;47.406;18.822;2023-06-24T00:20:04;100513.13;;;18.72;84.86
76994;BME280;66749;47.406;18.822;2023-06-24T00:20:38;100505.03;;;18.74;85.49
76994;BME280;66749;47.406;18.822;2023-06-24T00:21:10;100506.75;;;18.75;85.43
76994;BME280;66749;47.406;18.822;2023-06-24T00:21:42;100507.13;;;18.70;85.47
76994;BME280;66749;47.406;18.822;2023-06-24T00:22:14;100516.59;;;18.73;85.13
76994;BME280;66749;47.406;18.822;2023-06-24T00:22:46;100513.41;;;18.69;85.54
76994;BME280;66749;47.406;18.822;2023-06-24T00:23:22;100515.63;;;18.74;85.22
76994;BME280;66749;47.406;18.822;2023-06-24T00:23:58;100514.09;;;18.71;85.12
76994;BME280;66749;47.406;18.822;2023-06-24T00:24:30;100512.16;;;18.73;85.07
76994;BME280;66749;47.406;18.822;2023-06-24T00:25:02;100512.03;;;18.75;85.37
76994;BME280;66749;47.406;18.822;2023-06-24T00:25:34;100512.97;;;18.74;85.32
76994;BME280;66749;47.406;18.822;2023-06-24T00:26:06;100506.75;;;18.75;85.34
76994;BME280;66749;47.406;18.822;2023-06-24T00:26:38;100507.13;;;18.70;85.48
76994;BME280;66749;47.406;18.822;2023-06-24T00:27:10;100511.44;;;18.71;85.68
76994;BME280;66749;47.406;18.822;2023-06-24T00:27:41;100507.81;;;18.72;85.37
76994;BME280;66749;47.406;18.822;2023-06-24T00:28:14;100507.13;;;18.70;85.20
76994;BME280;66749;47.406;18.822;2023-06-24T00:28:46;100513.25;;;18.71;85.54
76994;BME280;66749;47.406;18.822;2023-06-24T00:29:18;100515.06;;;18.70;85.59
76994;BME280;66749;47.406;18.822;2023-06-24T00:29:50;100514.94;;;18.72;85.88
76994;BME280;66749;47.406;18.822;2023-06-24T00:30:22;100513.41;;;18.69;85.55
76994;BME280;66749;47.406;18.822;2023-06-24T00:30:54;100510.63;;;18.71;85.57
76994;BME280;66749;47.406;18.822;2023-06-24T00:31:26;100513.13;;;18.72;85.52
76994;BME280;66749;47.406;18.822;2023-06-24T00:31:58;100497.53;;;18.69;85.26
76994;BME280;66749;47.406;18.822;2023-06-24T00:32:30;100504.78;;;18.67;85.78
76994;BME280;66749;47.406;18.822;2023-06-24T00:33:02;100504.78;;;18.67;85.65
76994;BME280;66749;47.406;18.822;2023-06-24T00:33:34;100500.19;;;18.69;85.55
76994;BME280;66749;47.406;18.822;2023-06-24T00:34:07;100495.72;;;18.70;85.67
76994;BME280;66749;47.406;18.822;2023-06-24T00:34:39;100498.72;;;18.65;85.05
76994;BME280;66749;47.406;18.822;2023-06-24T00:35:15;100493.59;;;18.64;85.11
76994;BME280;66749;47.406;18.822;2023-06-24T00:35:47;100490.41;;;18.60;85.40
76994;BME280;66749;47.406;18.822;2023-06-24T00:36:19;100496.97;;;18.66;85.50
76994;BME280;66749;47.406;18.822;2023-06-24T00:36:51;100490.50;;;18.58;85.18
76994;BME280;66749;47.406;18.822;2023-06-24T00:37:23;100491.38;;;18.59;85.66
76994;BME280;66749;47.406;18.822;2023-06-24T00:37:55;100489.41;;;18.61;85.68
76994;BME280;66749;47.406;18.822;2023-06-24T00:38:30;100493.72;;;18.62;85.66
76994;BME280;66749;47.406;18.822;2023-06-24T00:39:04;100488.59;;;18.61;85.56
76994;BME280;66749;47.406;18.822;2023-06-24T00:39:40;100492.91;;;18.62;85.68
76994;BME280;66749;47.406;18.822;2023-06-24T00:40:12;100492.06;;;18.61;85.75
76994;BME280;66749;47.406;18.822;2023-06-24T00:40:46;100493.72;;;18.62;85.25
76994;BME280;66749;47.406;18.822;2023-06-24T00:41:19;100488.59;;;18.61;85.71
76994;BME280;66749;47.406;18.822;2023-06-24T00:41:51;100492.06;;;18.61;85.54
76994;BME280;66749;47.406;18.822;2023-06-24T00:42:23;100491.38;;;18.59;85.60
76994;BME280;66749;47.406;18.822;2023-06-24T00:42:55;100481.75;;;18.58;85.79
76994;BME280;66749;47.406;18.822;2023-06-24T00:43:27;100485.63;;;18.54;85.51
76994;BME280;66749;47.406;18.822;2023-06-24T00:44:01;100479.09;;;18.58;85.50
76994;BME280;66749;47.406;18.822;2023-06-24T00:44:33;100488.72;;;18.59;85.52
76994;BME280;66749;47.406;18.822;2023-06-24T00:45:05;100487.84;;;18.58;85.65
76994;BME280;66749;47.406;18.822;2023-06-24T00:45:38;100485.34;;;18.57;85.57
76994;BME280;66749;47.406;18.822;2023-06-24T00:46:11;100490.22;;;18.52;85.27
76994;BME280;66749;47.406;18.822;2023-06-24T00:46:42;100483.97;;;18.53;85.70
76994;BME280;66749;47.406;18.822;2023-06-24T00:47:15;100486.47;;;18.54;85.67
76994;BME280;66749;47.406;18.822;2023-06-24T00:47:47;100500.22;;;18.48;85.14
76994;BME280;66749;47.406;18.822;2023-06-24T00:48:19;100485.78;;;18.52;85.36
76994;BME280;66749;47.406;18.822;2023-06-24T00:48:56;100496.91;;;18.56;85.19
76994;BME280;66749;47.406;18.822;2023-06-24T00:49:28;100503.88;;;18.57;85.24
76994;BME280;66749;47.406;18.822;2023-06-24T00:50:00;100506.78;;;18.54;84.97
76994;BME280;66749;47.406;18.822;2023-06-24T00:50:32;100501.50;;;18.54;85.16
76994;BME280;66749;47.406;18.822;2023-06-24T00:51:03;100505.94;;;18.53;85.32
76994;BME280;66749;47.406;18.822;2023-06-24T00:51:35;100498.56;;;18.57;85.40
76994;BME280;66749;47.406;18.822;2023-06-24T00:52:07;100497.88;;;18.55;84.89
76994;BME280;66749;47.406;18.822;2023-06-24T00:52:47;100505.53;;;18.58;84.93
76994;BME280;66749;47.406;18.822;2023-06-24T00:53:20;100493.03;;;18.60;84.77
76994;BME280;66749;47.406;18.822;2023-06-24T00:53:57;100498.56;;;18.57;84.50
76994;BME280;66749;47.406;18.822;2023-06-24T00:54:29;100500.25;;;18.58;84.70
76994;BME280;66749;47.406;18.822;2023-06-24T00:55:04;100491.63;;;18.56;84.41
76994;BME280;66749;47.406;18.822;2023-06-24T00:55:36;100484.53;;;18.56;84.72
76994;BME280;66749;47.406;18.822;2023-06-24T00:56:08;100488.28;;;18.54;84.56
76994;BME280;66749;47.406;18.822;2023-06-24T00:56:40;100487.16;;;18.56;84.42
76994;BME280;66749;47.406;18.822;2023-06-24T00:57:14;100479.09;;;18.58;84.61
76994;BME280;66749;47.406;18.822;2023-06-24T00:57:49;100486.91;;;18.60;84.59
76994;BME280;66749;47.406;18.822;2023-06-24T00:58:23;100481.34;;;18.63;84.40
76994;BME280;66749;47.406;18.822;2023-06-24T00:58:57;100485.66;;;18.64;84.29
76994;BME280;66749;47.406;18.822;2023-06-24T00:59:29;100483.28;;;18.61;83.91
76994;BME280;66749;47.406;18.822;2023-06-24T01:00:03;100481.75;;;18.58;84.10
76994;BME280;66749;47.406;18.822;2023-06-24T01:00:40;100483.16;;;18.62;83.70
76994;BME280;66749;47.406;18.822;2023-06-24T01:01:14;100486.38;;;18.66;83.71
76994;BME280;66749;47.406;18.822;2023-06-24T01:01:46;100479.69;;;18.62;83.74
76994;BME280;66749;47.406;18.822;2023-06-24T01:02:19;100481.19;;;18.54;83.98
76994;BME280;66749;47.406;18.822;2023-06-24T01:02:52;100480.78;;;18.59;83.88
76994;BME280;66749;47.406;18.822;2023-06-24T01:03:25;100482.72;;;18.57;83.27
76994;BME280;66749;47.406;18.822;2023-06-24T01:03:57;100479.94;;;18.58;83.36
76994;BME280;66749;47.406;18.822;2023-06-24T01:04:33;100477.19;;;18.60;83.22
76994;BME280;66749;47.406;18.822;2023-06-24T01:05:06;100476.19;;;18.61;83.16
76994;BME280;66749;47.406;18.822;2023-06-24T01:05:44;100469.78;;;18.54;83.17
76994;BME280;66749;47.406;18.822;2023-06-24T01:06:17;100473.69;;;18.60;83.28
76994;BME280;66749;47.406;18.822;2023-06-24T01:06:50;100464.75;;;18.51;83.03
76994;BME280;66749;47.406;18.822;2023-06-24T01:07:22;100465.88;;;18.58;83.47
76994;BME280;66749;47.406;18.822;2023-06-24T01:07:54;100461.56;;;18.57;83.48
76994;BME280;66749;47.406;18.822;2023-06-24T01:08:28;100470.22;;;18.59;82.83
76994;BME280;66749;47.406;18.822;2023-06-24T01:09:01;100467.97;;;18.54;82.99
76994;BME280;66749;47.406;18.822;2023-06-24T01:09:34;100465.88;;;18.58;82.78
76994;BME280;66749;47.406;18.822;2023-06-24T01:10:07;100462.53;;;18.56;82.81
76994;BME280;66749;47.406;18.822;2023-06-24T01:10:39;100458.66;;;18.60;82.44
76994;BME280;66749;47.406;18.822;2023-06-24T01:11:11;100458.53;;;18.62;82.80
76994;BME280;66749;47.406;18.822;2023-06-24T01:11:43;100464.50;;;18.64;82.76
76994;BME280;66749;47.406;18.822;2023-06-24T01:12:15;100454.91;;;18.63;82.30
76994;BME280;66749;47.406;18.822;2023-06-24T01:12:47;100462.41;;;18.57;82.24
76994;BME280;66749;47.406;18.822;2023-06-24T01:13:19;100455.19;;;18.60;82.34
76994;BME280;66749;47.406;18.822;2023-06-24T01:13:52;100455.75;;;18.63;82.74
76994;BME280;66749;47.406;18.822;2023-06-24T01:14:24;100460.06;;;18.64;82.58
76994;BME280;66749;47.406;18.822;2023-06-24T01:14:55;100453.25;;;18.62;82.32
76994;BME280;66749;47.406;18.822;2023-06-24T01:15:27;100456.72;;;18.62;82.68
76994;BME280;66749;47.406;18.822;2023-06-24T01:16:06;100454.47;;;18.57;82.24
76994;BME280;66749;47.406;18.822;2023-06-24T01:16:53;100452.13;;;18.54;82.40
76994;BME280;66749;47.406;18.822;2023-06-24T01:17:36;100456.41;;;18.55;82.45
76994;BME280;66749;47.406;18.822;2023-06-24T01:18:59;100469.09;;;18.62;82.28
76994;BME280;66749;47.406;18.822;2023-06-24T01:21:33;100476.63;;;18.66;81.83
76994;BME280;66749;47.406;18.822;2023-06-24T01:24:31;100464.38;;;18.65;81.57
76994;BME280;66749;47.406;18.822;2023-06-24T01:28:22;100468.13;;;18.63;80.92
76994;BME280;66749;47.406;18.822;2023-06-24T01:32:07;100471.47;;;18.65;80.98
76994;BME280;66749;47.406;18.822;2023-06-24T01:32:50;100472.22;;;18.67;80.94
76994;BME280;66749;47.406;18.822;2023-06-24T01:33:36;100467.75;;;18.67;81.19
76994;BME280;66749;47.406;18.822;2023-06-24T01:34:29;100460.47;;;18.60;80.85
76994;BME280;66749;47.406;18.822;2023-06-24T01:35:16;100454.22;;;18.61;81.01
76994;BME280;66749;47.406;18.822;2023-06-24T01:35:53;100461.88;;;18.64;80.69
76994;BME280;66749;47.406;18.822;2023-06-24T01:36:28;100454.63;;;18.56;81.17
76994;BME280;66749;47.406;18.822;2023-06-24T01:37:25;100451.81;;;18.57;80.62
76994;BME280;66749;47.406;18.822;2023-06-24T01:38:00;100453.34;;;18.50;80.99
76994;BME280;66749;47.406;18.822;2023-06-24T01:38:46;100449.59;;;18.53;81.03
76994;BME280;66749;47.406;18.822;2023-06-24T01:39:22;100447.66;;;18.55;81.34
76994;BME280;66749;47.406;18.822;2023-06-24T01:40:04;100447.38;;;18.58;81.14
76994;BME280;66749;47.406;18.822;2023-06-24T01:40:44;100446.00;;;18.54;80.86
76994;BME280;66749;47.406;18.822;2023-06-24T01:41:22;100446.97;;;18.53;81.02
76994;BME280;66749;47.406;18.822;2023-06-24T01:41:59;100444.56;;;18.50;81.15
76994;BME280;66749;47.406;18.822;2023-06-24T01:42:35;100444.31;;;18.53;81.22
76994;BME280;66749;47.406;18.822;2023-06-24T01:43:10;100442.06;;;18.48;81.28
76994;BME280;66749;47.406;18.822;2023-06-24T01:43:43;100440.94;;;18.41;81.29
76994;BME280;66749;47.406;18.822;2023-06-24T01:44:16;100439.28;;;18.40;81.28
76994;BME280;66749;47.406;18.822;2023-06-24T01:44:51;100443.44;;;18.43;81.55
76994;BME280;66749;47.406;18.822;2023-06-24T01:45:27;100438.88;;;18.45;81.45
76994;BME280;66749;47.406;18.822;2023-06-24T01:46:01;100440.41;;;18.47;81.78
76994;BME280;66749;47.406;18.822;2023-06-24T01:46:34;100438.16;;;18.43;81.65
76994;BME280;66749;47.406;18.822;2023-06-24T01:47:06;100438.16;;;18.43;nan
76994;BME280;66749;47.406;18.822;2023-06-24T01:47:44;100433.72;;;18.43;81.62
76994;BME280;66749;47.406;18.822;2023-06-24T01:48:34;100439.00;;;18.43;81.43
76994;BME280;66749;47.406;18.822;2023-06-24T01:49:11;100436.50;;;18.42;81.76
76994;BME280;66749;47.406;18.822;2023-06-24T01:49:45;100442.75;;;18.41;82.12
76994;BME280;66749;47.406;18.822;2023-06-24T01:50:21;100435.94;;;18.38;81.98
76994;BME280;66749;47.406;18.822;2023-06-24T01:51:00;100436.50;;;18.42;82.11
76994;BME280;66749;47.406;18.822;2023-06-24T01:51:35;100438.72;;;18.37;81.92
76994;BME280;66749;47.406;18.822;2023-06-24T01:52:09;100435.22;;;18.36;82.12
76994;BME280;66749;47.406;18.822;2023-06-24T01:52:43;100437.31;;;18.33;82.12
76994;BME280;66749;47.406;18.822;2023-06-24T01:53:19;100431.75;;;18.36;82.59
76994;BME280;66749;47.406;18.822;2023-06-24T01:53:54;100442.19;;;18.37;82.32
76994;BME280;66749;47.406;18.822;2023-06-24T01:54:30;100437.16;;;18.34;82.39
76994;BME280;66749;47.406;18.822;2023-06-24T01:55:06;100435.94;;;18.38;82.37
76994;BME280;66749;47.406;18.822;2023-06-24T01:55:42;100442.59;;;18.33;82.61
76994;BME280;66749;47.406;18.822;2023-06-24T01:56:15;100429.25;;;18.34;82.37
76994;BME280;66749;47.406;18.822;2023-06-24T01:56:52;100432.47;;;18.38;81.87
76994;BME280;66749;47.406;18.822;2023-06-24T01:57:27;100435.94;;;18.38;82.35
76994;BME280;66749;47.406;18.822;2023-06-24T01:58:03;100438.44;;;18.40;82.65
76994;BME280;66749;47.406;18.822;2023-06-24T01:58:39;100433.16;;;18.40;82.78
76994;BME280;66749;47.406;18.822;2023-06-24T01:59:13;100430.50;;;18.40;82.57
76994;BME280;66749;47.406;18.822;2023-06-24T01:59:48;100439.28;;;18.40;82.65
76994;BME280;66749;47.406;18.822;2023-06-24T02:00:24;100429.81;;;18.38;82.87
76994;BME280;66749;47.406;18.822;2023-06-24T02:00:57;100430.91;;;18.35;83.17
76994;BME280;66749;47.406;18.822;2023-06-24T02:01:32;100430.78;;;18.37;82.96
76994;BME280;66749;47.406;18.822;2023-06-24T02:02:06;100431.19;;;18.32;83.43
76994;BME280;66749;47.406;18.822;2023-06-24T02:02:39;100429.38;;;18.33;83.24
76994;BME280;66749;47.406;18.822;2023-06-24T02:03:13;100434.66;;;18.33;83.37
76994;BME280;66749;47.406;18.822;2023-06-24T02:03:47;100429.09;;;18.36;83.54
76994;BME280;66749;47.406;18.822;2023-06-24T02:04:21;100437.03;;;18.36;83.61
76994;BME280;66749;47.406;18.822;2023-06-24T02:04:55;100433.69;;;18.34;83.45
76994;BME280;66749;47.406;18.822;2023-06-24T02:05:28;100438.84;;;18.35;83.26
76994;BME280;66749;47.406;18.822;2023-06-24T02:06:01;100438.72;;;18.37;83.45
76994;BME280;66749;47.406;18.822;2023-06-24T02:06:36;100444.56;;;18.40;83.31
76994;BME280;66749;47.406;18.822;2023-06-24T02:07:10;100448.88;;;18.41;83.16
76994;BME280;66749;47.406;18.822;2023-06-24T02:07:44;100450.13;;;18.37;83.40
76994;BME280;66749;47.406;18.822;2023-06-24T02:08:20;100444.00;;;18.37;83.25
76994;BME280;66749;47.406;18.822;2023-06-24T02:08:54;100450.81;;;18.39;83.22
76994;BME280;66749;47.406;18.822;2023-06-24T02:09:29;100453.47;;;18.39;83.23
76994;BME280;66749;47.406;18.822;2023-06-24T02:10:02;100463.44;;;18.36;83.30
76994;BME280;66749;47.406;18.822;2023-06-24T02:10:39;100457.31;;;18.35;83.34
76994;BME280;66749;47.406;18.822;2023-06-24T02:11:12;100456.25;;;18.38;83.53
76994;BME280;66749;47.406;18.822;2023-06-24T02:11:46;100454.28;;;18.40;83.24
76994;BME280;66749;47.406;18.822;2023-06-24T02:12:19;100455.00;;;18.42;82.99
76994;BME280;66749;47.406;18.822;2023-06-24T02:12:53;100459.72;;;18.38;83.27
76994;BME280;66749;47.406;18.822;2023-06-24T02:13:26;100450.69;;;18.41;83.27
76994;BME280;66749;47.406;18.822;2023-06-24T02:14:01;100452.63;;;18.39;82.64
76994;BME280;66749;47.406;18.822;2023-06-24T02:14:35;100444.94;;;18.36;83.22
76994;BME280;66749;47.406;18.822;2023-06-24T02:15:09;100449.41;;;18.35;83.34
76994;BME280;66749;47.406;18.822;2023-06-24T02:15:43;100443.16;;;18.36;83.47
76994;BME280;66749;47.406;18.822;2023-06-24T02:16:18;100446.66;;;18.37;83.25
76994;BME280;66749;47.406;18.822;2023-06-24T02:16:53;100446.91;;;18.34;83.25
76994;BME280;66749;47.406;18.822;2023-06-24T02:17:28;100451.75;;;18.28;83.45
76994;BME280;66749;47.406;18.822;2023-06-24T02:18:03;100445.50;;;18.29;83.15
76994;BME280;66749;47.406;18.822;2023-06-24T02:18:38;100443.72;;;18.30;83.41
76994;BME280;66749;47.406;18.822;2023-06-24T02:19:14;100442.88;;;18.29;83.23
76994;BME280;66749;47.406;18.822;2023-06-24T02:19:50;100445.50;;;18.29;82.73
76994;BME280;66749;47.406;18.822;2023-06-24T02:20:23;100446.75;;;18.25;83.24
76994;BME280;66749;47.406;18.822;2023-06-24T02:20:59;100435.88;;;18.28;82.88
76994;BME280;66749;47.406;18.822;2023-06-24T02:21:34;100444.38;;;18.22;83.20
76994;BME280;66749;47.406;18.822;2023-06-24T02:22:07;100443.41;;;18.23;83.04
76994;BME280;66749;47.406;18.822;2023-06-24T02:22:41;100444.78;;;18.18;83.34
76994;BME280;66749;47.406;18.822;2023-06-24T02:23:19;100450.63;;;18.21;83.26
76994;BME280;66749;47.406;18.822;2023-06-24T02:23:53;100450.75;;;18.20;83.58
76994;BME280;66749;47.406;18.822;2023-06-24T02:24:27;100450.75;;;18.20;83.15
76994;BME280;66749;47.406;18.822;2023-06-24T02:24:59;100457.59;;;18.22;83.18
76994;BME280;66749;47.406;18.822;2023-06-24T02:25:31;100448.00;;;18.21;83.32
76994;BME280;66749;47.406;18.822;2023-06-24T02:26:06;100459.25;;;18.23;83.25
76994;BME280;66749;47.406;18.822;2023-06-24T02:26:39;100459.78;;;18.17;82.80
76994;BME280;66749;47.406;18.822;2023-06-24T02:27:13;100460.75;;;18.16;82.94
76994;BME280;66749;47.406;18.822;2023-06-24T02:27:45;100457.13;;;18.17;82.58
76994;BME280;66749;47.406;18.822;2023-06-24T02:28:18;100457.84;;;18.19;82.58
76994;BME280;66749;47.406;18.822;2023-06-24T02:28:50;100465.63;;;18.21;82.42
76994;BME280;66749;47.406;18.822;2023-06-24T02:29:26;100463.94;;;18.20;82.62
76994;BME280;66749;47.406;18.822;2023-06-24T02:30:00;100467.56;;;18.19;82.61
76994;BME280;66749;47.406;18.822;2023-06-24T02:30:34;100458.13;;;18.16;82.55
76994;BME280;66749;47.406;18.822;2023-06-24T02:31:09;100456.97;;;18.09;82.79
76994;BME280;66749;47.406;18.822;2023-06-24T02:31:42;100461.88;;;18.14;82.89
76994;BME280;66749;47.406;18.822;2023-06-24T02:32:14;100466.72;;;18.18;82.60
76994;BME280;66749;47.406;18.822;2023-06-24T02:32:46;100458.13;;;18.16;82.68
76994;BME280;66749;47.406;18.822;2023-06-24T02:33:18;100458.94;;;18.17;82.43
76994;BME280;66749;47.406;18.822;2023-06-24T02:33:50;100455.84;;;18.12;81.95
76994;BME280;66749;47.406;18.822;2023-06-24T02:34:25;100456.00;;;18.10;82.50
76994;BME280;66749;47.406;18.822;2023-06-24T02:34:58;100458.63;;;18.10;82.77
76994;BME280;66749;47.406;18.822;2023-06-24T02:35:30;100461.41;;;18.09;82.41
76994;BME280;66749;47.406;18.822;2023-06-24T02:36:03;100457.66;;;18.11;82.48
76994;BME280;66749;47.406;18.822;2023-06-24T02:36:35;100459.03;;;18.06;83.00
76994;BME280;66749;47.406;18.822;2023-06-24T02:37:07;100453.50;;;18.09;82.66
76994;BME280;66749;47.406;18.822;2023-06-24T02:37:39;100452.53;;;18.10;82.36
76994;BME280;66749;47.406;18.822;2023-06-24T02:38:11;100455.31;;;18.08;82.55
76994;BME280;66749;47.406;18.822;2023-06-24T02:38:43;100458.09;;;18.07;82.86
76994;BME280;66749;47.406;18.822;2023-06-24T02:39:15;100458.31;;;18.03;82.52
76994;BME280;66749;47.406;18.822;2023-06-24T02:39:47;100460.00;;;18.05;82.63
76994;BME280;66749;47.406;18.822;2023-06-24T02:40:19;100455.53;;;18.05;82.64
76994;BME280;66749;47.406;18.822;2023-06-24T02:40:51;100452.66;;;18.08;82.84
76994;BME280;66749;47.406;18.822;2023-06-24T02:41:23;100461.38;;;17.99;82.83
76994;BME280;66749;47.406;18.822;2023-06-24T02:41:55;100452.50;;;18.00;82.97
76994;BME280;66749;47.406;18.822;2023-06-24T02:42:27;100454.16;;;18.01;83.06
76994;BME280;66749;47.406;18.822;2023-06-24T02:42:59;100465.09;;;17.96;83.15
76994;BME280;66749;47.406;18.822;2023-06-24T02:43:32;100461.91;;;17.93;83.22
76994;BME280;66749;47.406;18.822;2023-06-24T02:44:04;100470.81;;;17.92;83.04
76994;BME280;66749;47.406;18.822;2023-06-24T02:44:37;100458.34;;;17.83;83.06
76994;BME280;66749;47.406;18.822;2023-06-24T02:45:09;100463.13;;;17.89;83.04
76994;BME280;66749;47.406;18.822;2023-06-24T02:45:41;100456.75;;;17.91;83.04
76994;BME280;66749;47.406;18.822;2023-06-24T02:46:15;100453.56;;;17.97;82.83
76994;BME280;66749;47.406;18.822;2023-06-24T02:46:50;100466.66;;;17.99;82.55
76994;BME280;66749;47.406;18.822;2023-06-24T02:47:23;100470.66;;;17.93;82.83
76994;BME280;66749;47.406;18.822;2023-06-24T02:47:57;100456.50;;;17.94;82.70
76994;BME280;66749;47.406;18.822;2023-06-24T02:48:31;100461.78;;;17.94;83.05
76994;BME280;66749;47.406;18.822;2023-06-24T02:49:08;100460.25;;;17.92;83.17
76994;BME280;66749;47.406;18.822;2023-06-24T02:49:44;100457.59;;;17.92;83.00
76994;BME280;66749;47.406;18.822;2023-06-24T02:50:18;100456.63;;;17.93;82.57
76994;BME280;66749;47.406;18.822;2023-06-24T02:50:51;100465.25;;;17.95;82.86
76994;BME280;66749;47.406;18.822;2023-06-24T02:51:25;100461.91;;;17.93;82.46
76994;BME280;66749;47.406;18.822;2023-06-24T02:51:57;100468.03;;;17.93;82.24
76994;BME280;66749;47.406;18.822;2023-06-24T02:52:29;100469.09;;;17.91;82.66
76994;BME280;66749;47.406;18.822;2023-06-24T02:53:01;100470.81;;;17.92;82.19
76994;BME280;66749;47.406;18.822;2023-06-24T02:53:34;100483.72;;;17.95;82.45
76994;BME280;66749;47.406;18.822;2023-06-24T02:54:07;100486.66;;;17.92;82.13
76994;BME280;66749;47.406;18.822;2023-06-24T02:54:40;100486.38;;;17.95;82.12
76994;BME280;66749;47.406;18.822;2023-06-24T02:55:13;100487.06;;;17.97;82.15
76994;BME280;66749;47.406;18.822;2023-06-24T02:55:47;100492.09;;;18.00;82.11
76994;BME280;66749;47.406;18.822;2023-06-24T02:56:20;100488.50;;;18.01;81.74
76994;BME280;66749;47.406;18.822;2023-06-24T02:56:52;100496.66;;;17.98;82.11
76994;BME280;66749;47.406;18.822;2023-06-24T02:57:28;100499.56;;;17.95;81.83
76994;BME280;66749;47.406;18.822;2023-06-24T02:58:02;100497.75;;;17.95;82.00
76994;BME280;66749;47.406;18.822;2023-06-24T02:58:37;100502.50;;;17.92;81.76
76994;BME280;66749;47.406;18.822;2023-06-24T02:59:11;100502.91;;;17.97;81.57
76994;BME280;66749;47.406;18.822;2023-06-24T02:59:43;100499.44;;;17.96;81.90
76994;BME280;66749;47.406;18.822;2023-06-24T03:00:15;100501.50;;;17.93;82.12
76994;BME280;66749;47.406;18.822;2023-06-24T03:00:48;100502.72;;;17.89;81.60
76994;BME280;66749;47.406;18.822;2023-06-24T03:01:21;100498.75;;;17.94;81.69
76994;BME280;66749;47.406;18.822;2023-06-24T03:01:57;100497.44;;;17.89;81.86
76994;BME280;66749;47.406;18.822;2023-06-24T03:02:29;100501.50;;;17.93;82.00
76994;BME280;66749;47.406;18.822;2023-06-24T03:03:03;100497.22;;;17.92;82.28
76994;BME280;66749;47.406;18.822;2023-06-24T03:03:35;100493.97;;;17.88;81.97
76994;BME280;66749;47.406;18.822;2023-06-24T03:04:07;100489.66;;;17.87;81.80
76994;BME280;66749;47.406;18.822;2023-06-24T03:04:39;100491.34;;;17.88;81.79
76994;BME280;66749;47.406;18.822;2023-06-24T03:05:11;100492.16;;;17.89;81.89
76994;BME280;66749;47.406;18.822;2023-06-24T03:05:43;100490.78;;;17.85;81.92
76994;BME280;66749;47.406;18.822;2023-06-24T03:06:17;100486.56;;;17.82;81.92
76994;BME280;66749;47.406;18.822;2023-06-24T03:06:50;100484.06;;;17.81;82.37